Accueil
METAR-TAF:

METAR-TAF

Aéroports :

Aéroport international de Sialkot

Sialkot, Pakistan

latitude: 32-32N, longitude: 74-22E, altitude: 255 m

Observation

Le bulletin a été fait il y a 28 minutes, à 23:00 UTC
Vent calme
Température 6°C
Humidité 87%
Pression 1020 hPa
Visibilité: 4000 m
fumée

METAR: OPST 222300Z 00000KT 4000 FU NSC 06/04 Q1020 NOSIG RH85

Heure: 04:28 (23:28 UTC)

Prévision

Le bulletin a été fait il y a 7 heures et 43 minutes, à 15:45 UTC
Prévision valable du 22 à 18 UTC au 23 à 24 UTC
Vent 10 kt de nord-ouest
Visibilité: 4000 m
Quelques nuages à une hauteur de 10000 ft
fumée
Temporairement
du 22 à 22 UTC au 23 à 04 UTC
Vent kt de nord
Visibilité: 1500 m
brume

TAF: OPST 221545Z 2218/2324 31010KT 4000 FU FEW100 TX19/2310Z TN04/2301Z TEMPO 2222/2304 00000KT 1500 BR

Observations et prévisions météorologiques de plus de 4000 aéroports (messages METAR et TAF).

Les stations disponibles sont représentées par des disques jaunes et rouges sur la carte.

Passer la souris dessus pour voir le nom de la station.

Cliquer dessus pour voir les observations et prévisions météorologiques.

Pour changer de carte: cliquez sur les boutons verts avec une croix noire pour zoomer, sur le bouton vert avec un tiret pour effectuer un zoom arrière, ou sur les flèches vertes pour les cartes adjacentes.


METAR-TAF: